Time;durP1;ratioP1;P1;durP2;ratioP2;P2;SDS_P1;SDS_P2;PMS_P1;PMS_P2;Temp;Humidity;BMP_temperature;BMP_pressure;BME280_temperature;BME280_humidity;BME280_pressure;Samples;Min_cycle;Max_cycle;Signal;HPM_P1;HPM_P2
2022/09/20 00:01:06;;;;;;;9.23;1.80;;;;;;;14.50;57.08;101883.41;5104108;28;20441;-61
2022/09/20 00:03:39;;;;;;;7.90;1.85;;;;;;;14.68;55.69;101876.06;5117097;28;20082;-62
2022/09/20 00:06:10;;;;;;;8.10;1.70;;;;;;;14.92;55.77;101874.66;5116576;28;20048;-61
2022/09/20 00:08:39;;;;;;;6.50;1.63;;;;;;;14.72;54.23;101874.28;5117357;28;20043;-61
2022/09/20 00:11:09;;;;;;;10.73;1.98;;;;;;;14.30;57.24;101879.13;5116974;28;20050;-61
2022/09/20 00:13:38;;;;;;;8.95;2.08;;;;;;;14.48;57.10;101872.63;5116993;28;20056;-61
2022/09/20 00:16:07;;;;;;;6.78;1.95;;;;;;;14.56;56.24;101871.88;5116846;28;20050;-61
2022/09/20 00:18:35;;;;;;;8.13;1.90;;;;;;;14.60;56.12;101875.69;5115081;28;20052;-61
2022/09/20 00:21:03;;;;;;;12.30;2.03;;;;;;;14.08;56.73;101883.72;5098283;28;20375;-61
2022/09/20 00:23:31;;;;;;;7.55;2.08;;;;;;;13.80;58.86;101887.63;5117386;28;20052;-61
2022/09/20 00:26:00;;;;;;;6.57;1.85;;;;;;;13.39;58.88;101882.84;5116820;28;20062;-61
2022/09/20 00:28:28;;;;;;;8.45;1.80;;;;;;;13.37;59.23;101885.09;5116940;28;20082;-61
2022/09/20 00:30:56;;;;;;;6.35;1.90;;;;;;;13.33;59.80;101881.31;5116662;28;20604;-61
2022/09/20 00:35:06;;;;;;;14.60;2.00;;;;;;;13.34;59.81;101874.63;5117253;28;20043;-61
2022/09/20 00:36:11;;;;;;;6.70;1.90;;;;;;;13.17;60.20;101882.69;5098111;28;20062;-61
2022/09/20 00:38:39;;;;;;;14.00;2.17;;;;;;;13.19;60.40;101874.06;5116874;28;20066;-61
2022/09/20 00:41:07;;;;;;;10.93;2.03;;;;;;;12.86;60.62;101883.44;5116597;28;20518;-61
2022/09/20 00:43:40;;;;;;;5.55;2.05;;;;;;;12.57;61.62;101880.03;5099026;28;20409;-63
2022/09/20 00:46:26;;;;;;;12.35;2.25;;;;;;;12.32;63.63;101875.66;5116588;28;20047;-62
2022/09/20 00:49:24;;;;;;;9.48;2.03;;;;;;;12.62;62.00;101872.47;5116770;28;20047;-61
2022/09/20 00:51:58;;;;;;;8.95;1.83;;;;;;;12.99;63.06;101866.09;5096176;28;20056;-61
2022/09/20 00:54:25;;;;;;;7.78;2.08;;;;;;;12.78;61.32;101875.84;5081072;28;20050;-61
2022/09/20 00:56:53;;;;;;;8.40;1.92;;;;;;;12.93;62.33;101876.41;5098181;28;20044;-61
2022/09/20 00:59:22;;;;;;;7.88;1.65;;;;;;;13.15;61.75;101879.38;5116419;28;20040;-61
2022/09/20 01:01:52;;;;;;;7.60;1.65;;;;;;;13.05;60.82;101878.75;5114969;28;20532;-60
2022/09/20 01:04:21;;;;;;;9.38;1.92;;;;;;;13.04;61.31;101871.56;5098610;28;20517;-60
2022/09/20 01:06:50;;;;;;;9.13;1.75;;;;;;;13.69;61.16;101873.16;5115782;28;20055;-61
2022/09/20 01:09:17;;;;;;;4.95;1.70;;;;;;;13.65;61.22;101885.16;5116490;28;20047;-60
2022/09/20 01:11:45;;;;;;;8.48;2.20;;;;;;;13.47;60.16;101884.94;5116148;28;20047;-60
2022/09/20 01:14:13;;;;;;;9.88;1.85;;;;;;;13.38;60.62;101881.22;5098306;28;20490;-61
2022/09/20 01:16:43;;;;;;;;;;;;;;;13.08;60.72;101873.44;5116227;28;20151;-61
2022/09/20 01:19:52;;;;;;;6.80;1.90;;;;;;;13.10;60.90;101878.66;5115709;28;19920;-61
2022/09/20 01:22:40;;;;;;;7.35;1.58;;;;;;;12.89;61.33;101869.84;5115707;28;20062;-61
2022/09/20 01:25:15;;;;;;;9.73;2.13;;;;;;;12.92;62.49;101873.97;5064907;28;20048;-61
2022/09/20 01:27:47;;;;;;;7.18;1.88;;;;;;;12.70;62.67;101869.03;5081231;28;20048;-61
2022/09/20 01:30:24;;;;;;;8.50;1.80;;;;;;;12.79;62.07;101861.72;5079256;28;20059;-62
2022/09/20 01:33:06;;;;;;;7.88;1.80;;;;;;;12.67;62.13;101860.50;5097053;28;20055;-61
2022/09/20 01:35:34;;;;;;;12.82;2.10;;;;;;;13.03;61.68;101859.69;5114105;28;20048;-61
2022/09/20 01:38:23;;;;;;;12.57;2.15;;;;;;;13.40;62.58;101861.53;5080817;28;20047;-61
2022/09/20 01:41:05;;;;;;;7.22;1.50;;;;;;;14.21;60.01;101852.44;5116647;27;20485;-62
2022/09/20 01:43:52;;;;;;;8.50;1.83;;;;;;;14.16;58.88;101855.28;5097370;28;20075;-61
2022/09/20 01:46:31;;;;;;;7.20;1.70;;;;;;;14.51;59.02;101847.06;5097587;28;20051;-61
2022/09/20 01:49:13;;;;;;;6.38;1.58;;;;;;;14.21;57.77;101855.22;5109101;28;20051;-61
2022/09/20 01:52:12;;;;;;;10.32;1.85;;;;;;;14.04;59.40;101850.28;5095896;28;20059;-61
2022/09/20 01:54:56;;;;;;;9.45;2.47;;;;;;;13.78;60.41;101865.78;5095723;28;20506;-61
2022/09/20 01:57:54;;;;;;;8.63;2.17;;;;;;;14.05;58.29;101851.13;5095157;28;20055;-60
2022/09/20 02:00:26;;;;;;;9.20;1.38;;;;;;;14.27;59.82;101848.44;5110225;28;20650;-60
2022/09/20 02:03:11;;;;;;;8.05;2.00;;;;;;;14.47;57.30;101850.78;5095681;28;20403;-61
2022/09/20 02:06:32;;;;;;;6.22;1.60;;;;;;;14.78;58.35;101842.53;5096901;28;20106;-61
2022/09/20 02:09:15;;;;;;;5.70;1.85;;;;;;;14.92;56.84;101838.59;4997304;28;20509;-61
2022/09/20 02:12:00;;;;;;;7.53;1.55;;;;;;;14.35;57.76;101839.38;5098881;28;20406;-61
2022/09/20 02:14:34;;;;;;;6.95;1.77;;;;;;;14.00;58.18;101845.69;5080795;28;20494;-61
2022/09/20 02:17:11;;;;;;;6.35;1.50;;;;;;;13.89;59.36;101842.31;5081066;28;20078;-61
2022/09/20 02:19:47;;;;;;;10.25;2.00;;;;;;;13.85;58.37;101840.44;5101468;28;20058;-61
2022/09/20 02:22:33;;;;;;;7.93;1.85;;;;;;;13.01;61.03;101861.06;5100884;28;20047;-60
2022/09/20 02:25:21;;;;;;;6.05;1.60;;;;;;;13.13;61.18;101853.13;5116177;28;20059;-61
2022/09/20 02:28:13;;;;;;;8.55;1.40;;;;;;;12.79;61.44;101855.34;5098665;28;20047;-61
2022/09/20 02:30:49;;;;;;;8.88;2.40;;;;;;;12.33;63.82;101857.97;5084797;28;20634;-62
2022/09/20 02:33:39;;;;;;;5.53;1.60;;;;;;;12.44;64.00;101859.47;5119562;28;20055;-61
2022/09/20 02:36:24;;;;;;;8.05;1.90;;;;;;;12.32;63.67;101867.38;5100796;28;20052;-61
2022/09/20 02:39:09;;;;;;;7.40;1.95;;;;;;;12.21;64.23;101863.09;5101176;28;20043;-62
2022/09/20 02:41:58;;;;;;;8.93;1.83;;;;;;;12.22;64.04;101870.28;5082997;28;20062;-61
2022/09/20 02:45:03;;;;;;;6.45;1.88;;;;;;;12.25;64.64;101865.00;5101348;28;20051;-61
2022/09/20 02:47:36;;;;;;;6.60;1.65;;;;;;;12.07;65.31;101868.53;5118807;28;20051;-62
2022/09/20 02:50:18;;;;;;;8.77;1.88;;;;;;;11.84;65.04;101869.34;5119148;28;20047;-62
2022/09/20 02:52:57;;;;;;;8.48;1.60;;;;;;;11.70;65.76;101873.13;5101232;28;20047;-59
2022/09/20 02:55:32;;;;;;;9.13;1.70;;;;;;;11.62;66.56;101866.28;5099629;28;20047;-61
2022/09/20 02:58:11;;;;;;;6.70;1.55;;;;;;;12.40;66.81;101867.53;5119033;28;20048;-60
2022/09/20 03:01:02;;;;;;;5.32;1.50;;;;;;;12.86;63.96;101869.63;5113760;28;20051;-61
2022/09/20 03:03:50;;;;;;;5.57;1.45;;;;;;;12.79;62.99;101866.41;5098753;28;20065;-61
2022/09/20 03:06:34;;;;;;;9.27;1.58;;;;;;;12.33;63.82;101874.53;5079685;28;20047;-60
2022/09/20 03:09:20;;;;;;;5.13;1.75;;;;;;;13.00;62.67;101868.56;5080545;28;20509;-61
2022/09/20 03:12:01;;;;;;;4.35;1.65;;;;;;;12.51;64.00;101870.13;5098011;28;20414;-61
2022/09/20 03:15:01;;;;;;;6.07;1.40;;;;;;;12.11;64.26;101866.00;5098463;28;20055;-61
2022/09/20 03:17:42;;;;;;;8.03;1.80;;;;;;;12.16;64.19;101865.94;5061969;28;20142;-61
2022/09/20 03:20:51;;;;;;;9.98;2.10;;;;;;;11.83;65.24;101873.25;5063264;28;20490;-61
2022/09/20 03:23:44;;;;;;;11.40;1.90;;;;;;;12.20;65.27;101867.00;5029387;28;20054;-61
2022/09/20 03:27:01;;;;;;;5.97;1.63;;;;;;;12.22;64.07;101864.75;5109304;28;20051;-62
2022/09/20 03:29:46;;;;;;;10.32;2.00;;;;;;;11.91;65.33;101863.47;5021719;28;20063;-60
2022/09/20 03:32:50;;;;;;;7.63;1.80;;;;;;;13.12;64.99;101865.34;5097608;28;20047;-60
2022/09/20 03:35:36;;;;;;;6.95;1.88;;;;;;;13.86;61.58;101858.72;5097315;28;20051;-61
2022/09/20 03:38:13;;;;;;;5.53;1.58;;;;;;;14.05;60.64;101851.13;5097481;28;20048;-61
2022/09/20 03:40:51;;;;;;;11.75;1.80;;;;;;;13.62;60.47;101867.19;5097255;28;20056;-61
2022/09/20 03:43:28;;;;;;;5.68;1.95;;;;;;;12.88;62.10;101861.84;5079986;28;20079;-60
2022/09/20 03:46:02;;;;;;;6.68;2.00;;;;;;;13.30;62.54;101865.28;5097374;28;20047;-61
2022/09/20 03:48:33;;;;;;;8.52;2.20;;;;;;;13.35;63.22;101862.41;5097753;28;20044;-61
2022/09/20 03:51:27;;;;;;;10.07;1.95;;;;;;;13.75;61.24;101868.34;5096632;28;20055;-61
2022/09/20 03:54:28;;;;;;;7.67;1.80;;;;;;;14.01;60.53;101856.44;5080435;28;20078;-61
2022/09/20 03:57:14;;;;;;;6.32;1.77;;;;;;;13.93;60.11;101857.16;5097216;28;20297;-61
2022/09/20 03:59:47;;;;;;;7.57;1.80;;;;;;;13.47;60.19;101860.00;5108481;28;20047;-60
2022/09/20 04:03:05;;;;;;;8.70;1.92;;;;;;;13.70;60.77;101854.59;5099959;28;20644;-59
2022/09/20 04:05:58;;;;;;;5.57;2.22;;;;;;;13.08;62.15;101850.47;4994459;28;20049;-62
2022/09/20 04:08:50;;;;;;;6.20;1.60;;;;;;;13.66;61.62;101850.78;5068021;28;20059;-60
2022/09/20 04:11:31;;;;;;;8.25;1.70;;;;;;;13.75;60.70;101852.56;5096696;28;20048;-61
2022/09/20 04:14:15;;;;;;;7.57;2.03;;;;;;;13.89;60.70;101847.84;5062492;28;20059;-61
2022/09/20 04:17:08;;;;;;;10.48;1.75;;;;;;;14.18;59.74;101851.09;5096711;28;20047;-60
2022/09/20 04:19:55;;;;;;;9.40;1.92;;;;;;;13.92;59.62;101863.84;5078070;28;20063;-60
2022/09/20 04:22:24;;;;;;;6.97;1.75;;;;;;;13.97;59.40;101855.41;5113924;28;20054;-60
2022/09/20 04:25:08;;;;;;;8.18;1.70;;;;;;;13.57;61.67;101861.75;5099298;28;20410;-60
2022/09/20 04:27:40;;;;;;;13.18;2.05;;;;;;;14.09;60.56;101860.44;5098060;28;20066;-61
2022/09/20 04:30:21;;;;;;;10.38;1.70;;;;;;;14.28;59.33;101856.44;5099177;28;20055;-62
2022/09/20 04:32:59;;;;;;;5.38;1.77;;;;;;;14.29;59.44;101860.88;5117240;28;20055;-61
2022/09/20 04:38:29;;;;;;;8.90;1.80;;;;;;;14.59;58.88;101860.16;5092643;28;20086;-61
2022/09/20 04:41:21;;;;;;;7.07;2.03;;;;;;;14.67;58.42;101847.50;5116513;28;20057;-61
2022/09/20 04:44:07;;;;;;;7.57;2.13;;;;;;;14.51;58.77;101860.09;5117046;28;20052;-61
2022/09/20 04:46:51;;;;;;;6.15;1.90;;;;;;;14.44;58.79;101862.47;5097759;28;20490;-60
2022/09/20 04:49:48;;;;;;;9.43;2.47;;;;;;;14.22;59.63;101860.44;5099266;28;20051;-61
2022/09/20 04:52:30;;;;;;;7.10;1.90;;;;;;;14.35;59.02;101867.09;5116297;28;20051;-62
2022/09/20 04:55:15;;;;;;;10.48;2.10;;;;;;;14.10;59.88;101865.69;5097944;28;20054;-61
2022/09/20 04:58:03;;;;;;;5.07;1.60;;;;;;;14.48;58.49;101875.41;5081169;28;20051;-60
2022/09/20 05:01:09;;;;;;;9.50;2.20;;;;;;;13.87;60.04;101874.19;5112657;28;20067;-61
2022/09/20 05:03:52;;;;;;;7.35;1.95;;;;;;;13.06;62.33;101883.13;4997686;28;20063;-61
2022/09/20 05:06:22;;;;;;;12.90;2.10;;;;;;;13.43;62.27;101878.34;5076889;28;20608;-59
2022/09/20 05:08:59;;;;;;;11.93;2.30;;;;;;;13.02;61.86;101890.41;5096322;28;20048;-59
2022/09/20 05:11:42;;;;;;;7.03;2.00;;;;;;;12.70;63.38;101898.59;5077739;28;20055;-61
2022/09/20 05:14:23;;;;;;;6.28;1.80;;;;;;;12.48;63.68;101884.56;5061810;28;20060;-61
2022/09/20 05:16:59;;;;;;;9.15;2.30;;;;;;;12.21;65.71;101886.03;5109619;28;20051;-59
2022/09/20 05:19:51;;;;;;;8.68;1.98;;;;;;;12.75;64.88;101888.31;5116315;28;20501;-60
2022/09/20 05:22:46;;;;;;;10.88;3.00;;;;;;;13.31;63.34;101888.25;5115845;28;20058;-60
2022/09/20 05:25:19;;;;;;;10.77;2.28;;;;;;;13.76;61.36;101879.09;5116144;28;20047;-61
2022/09/20 05:27:55;;;;;;;21.25;2.58;;;;;;;14.00;60.82;101879.72;5116289;28;20059;-61
2022/09/20 05:30:29;;;;;;;11.40;2.13;;;;;;;13.99;59.30;101877.25;5097624;28;20044;-59
2022/09/20 05:33:20;;;;;;;15.38;3.25;;;;;;;13.78;61.34;101882.41;5116297;28;20062;-61
2022/09/20 05:36:16;;;;;;;16.40;2.58;;;;;;;12.77;62.12;101880.53;5097330;28;20043;-61
2022/09/20 05:39:19;;;;;;;10.88;3.08;;;;;;;13.84;61.55;101886.72;5097537;28;20054;-63
2022/09/20 05:41:56;;;;;;;16.58;3.83;;;;;;;14.31;59.42;101882.72;5115576;28;20047;-61
2022/09/20 05:44:46;;;;;;;10.05;2.90;;;;;;;13.44;60.14;101882.75;5098110;28;20052;-62
2022/09/20 05:47:38;;;;;;;8.77;2.30;;;;;;;13.15;62.23;101890.47;5080882;28;20050;-61
2022/09/20 05:50:28;;;;;;;9.70;2.28;;;;;;;12.88;62.66;101895.84;5097770;28;20044;-60
2022/09/20 05:53:01;;;;;;;8.38;2.33;;;;;;;12.55;63.99;101891.38;5098093;28;20051;-61
2022/09/20 05:56:02;;;;;;;8.32;2.83;;;;;;;13.75;62.26;101891.31;5096772;28;20279;-61
2022/09/20 05:58:51;;;;;;;11.27;2.88;;;;;;;13.87;60.87;101888.03;5097900;28;20043;-61
2022/09/20 06:01:29;;;;;;;14.23;2.88;;;;;;;13.98;60.94;101887.50;5105253;28;20044;-61
2022/09/20 06:04:11;;;;;;;9.82;2.50;;;;;;;14.25;60.38;101884.75;5077594;28;20149;-61
2022/09/20 06:07:10;;;;;;;11.35;2.88;;;;;;;14.55;59.33;101880.53;5077046;28;20056;-61
2022/09/20 06:09:50;;;;;;;6.03;2.13;;;;;;;14.62;58.93;101895.59;5095664;28;20058;-61
2022/09/20 06:12:35;;;;;;;7.60;2.40;;;;;;;13.89;58.99;101902.41;5094968;28;20056;-62
2022/09/20 06:15:25;;;;;;;12.25;2.47;;;;;;;14.51;59.38;101905.28;5095596;28;20629;-59
2022/09/20 06:18:07;;;;;;;11.18;2.67;;;;;;;14.04;59.78;101913.19;5093733;28;20091;-62
2022/09/20 06:20:56;;;;;;;7.80;2.60;;;;;;;14.12;60.28;101910.50;5092617;28;20056;-62
2022/09/20 06:23:24;;;;;;;8.20;2.20;;;;;;;14.46;59.51;101899.00;5094044;28;20048;-58
2022/09/20 06:26:22;;;;;;;7.25;2.42;;;;;;;14.72;59.04;101905.63;5115225;28;20051;-60
2022/09/20 06:28:52;;;;;;;9.35;2.92;;;;;;;14.87;57.94;101905.28;5091988;28;20059;-60
2022/09/20 06:31:31;;;;;;;10.02;2.40;;;;;;;14.95;58.01;101903.72;5099180;28;20063;-61
2022/09/20 06:34:04;;;;;;;12.48;2.92;;;;;;;15.07;57.69;101904.81;5110787;28;20047;-60
2022/09/20 06:42:37;;;;;;;12.30;2.85;;;;;;;15.07;57.44;101904.81;5095975;28;20051;-62
2022/09/20 06:45:05;;;;;;;8.35;2.85;;;;;;;15.12;57.36;101915.78;5084400;28;20049;-60
2022/09/20 06:47:33;;;;;;;7.93;2.58;;;;;;;15.29;57.13;101918.66;5112981;28;20044;-62
2022/09/20 06:50:05;;;;;;;15.02;5.15;;;;;;;14.42;58.42;101921.00;5111094;28;20048;-61
2022/09/20 06:52:34;;;;;;;19.98;9.80;;;;;;;14.77;59.05;101924.13;5116416;28;20052;-61
2022/09/20 06:55:06;;;;;;;12.15;3.38;;;;;;;14.25;61.52;101931.88;5103549;27;20059;-61
2022/09/20 06:57:37;;;;;;;11.40;2.67;;;;;;;14.02;60.05;101929.28;5116824;27;23106;-60
2022/09/20 07:00:08;;;;;;;12.75;3.17;;;;;;;14.04;62.55;101927.84;5082145;27;20058;-60
2022/09/20 07:02:36;;;;;;;13.02;3.00;;;;;;;13.41;62.09;101930.41;5114886;27;20055;-61
2022/09/20 07:05:06;;;;;;;11.38;2.95;;;;;;;13.34;63.92;101927.22;5112544;27;20047;-59
2022/09/20 07:07:33;;;;;;;12.90;3.10;;;;;;;14.15;64.10;101925.69;5115676;27;20562;-59
2022/09/20 07:10:00;;;;;;;12.10;2.83;;;;;;;13.40;64.71;101926.00;5089347;28;20036;-59
2022/09/20 07:12:28;;;;;;;14.38;3.25;;;;;;;13.93;61.92;101923.63;5114596;27;20039;-58
2022/09/20 07:14:55;;;;;;;10.35;3.05;;;;;;;13.40;62.81;101939.03;5110104;27;20060;-58
2022/09/20 07:17:22;;;;;;;11.68;3.33;;;;;;;12.50;64.83;101938.41;5100445;28;20071;-59
2022/09/20 07:19:50;;;;;;;10.25;2.78;;;;;;;12.36;66.48;101934.75;5105911;27;20051;-60
2022/09/20 07:22:17;;;;;;;10.80;3.28;;;;;;;12.27;67.05;101933.75;5115744;27;20409;-61
2022/09/20 07:24:46;;;;;;;17.58;3.25;;;;;;;12.82;67.46;101934.91;5097074;28;20043;-61
2022/09/20 07:27:14;;;;;;;12.65;3.33;;;;;;;13.20;66.28;101945.69;5114580;27;20052;-61
2022/09/20 07:29:41;;;;;;;12.65;3.42;;;;;;;12.79;64.73;101952.94;5116358;27;20055;-61
2022/09/20 07:32:09;;;;;;;16.05;2.97;;;;;;;12.59;65.08;101952.41;5110997;27;20058;-56
2022/09/20 07:34:36;;;;;;;14.50;2.80;;;;;;;12.48;65.77;101950.88;5097545;28;20082;-56
2022/09/20 07:37:03;;;;;;;12.25;3.10;;;;;;;13.44;64.87;101956.69;5097154;28;20122;-54
2022/09/20 07:39:30;;;;;;;16.38;3.70;;;;;;;13.51;62.96;101965.41;5112671;27;20051;-55
2022/09/20 07:41:58;;;;;;;10.50;3.38;;;;;;;12.41;65.84;101963.09;5111187;27;20055;-56
2022/09/20 07:44:26;;;;;;;8.85;2.80;;;;;;;12.92;66.69;101963.25;5095927;28;20052;-54
2022/09/20 07:46:56;;;;;;;11.20;2.72;;;;;;;12.58;65.36;101965.41;5107224;27;20055;-52
2022/09/20 07:49:24;;;;;;;;;;;;;;;12.59;66.05;101967.03;5115726;27;20056;-59
2022/09/20 07:51:52;;;;;;;11.48;2.80;;;;;;;12.81;65.29;101972.00;5104209;27;19942;-57
2022/09/20 07:54:19;;;;;;;11.05;2.58;;;;;;;13.12;65.49;101963.00;5120118;27;20055;-55
2022/09/20 07:56:47;;;;;;;12.77;2.70;;;;;;;12.98;63.03;101966.78;5091543;28;20043;-57
2022/09/20 07:59:15;;;;;;;10.02;3.05;;;;;;;12.95;65.22;101965.44;5115618;28;20126;-56
2022/09/20 08:01:42;;;;;;;12.75;2.85;;;;;;;13.05;63.66;101964.47;5095246;28;20106;-58
2022/09/20 08:04:10;;;;;;;11.52;3.35;;;;;;;12.48;65.50;101973.81;5098804;28;20048;-55
2022/09/20 08:06:39;;;;;;;12.35;2.58;;;;;;;12.53;65.62;101975.69;5112816;28;20054;-56
2022/09/20 08:09:07;;;;;;;13.82;3.25;;;;;;;12.38;65.34;101979.47;5107919;27;20062;-58
2022/09/20 08:11:38;;;;;;;11.88;2.72;;;;;;;12.61;66.14;101975.84;5116305;27;20040;-56
2022/09/20 08:14:07;;;;;;;13.20;3.65;;;;;;;12.48;66.13;101982.13;5109600;28;20043;-56
2022/09/20 08:16:41;;;;;;;18.35;3.33;;;;;;;12.80;65.24;101978.63;5115949;28;20591;-55
2022/09/20 08:19:19;;;;;;;11.85;2.95;;;;;;;12.95;64.75;101976.50;5113238;27;20048;-56
2022/09/20 08:21:48;;;;;;;19.92;2.70;;;;;;;13.55;63.72;101977.50;5093475;28;20455;-57
2022/09/20 08:24:16;;;;;;;12.18;2.67;;;;;;;13.93;61.54;101976.25;5112655;27;20047;-57
2022/09/20 08:26:43;;;;;;;21.48;3.78;;;;;;;14.41;60.49;101977.59;5114888;27;20062;-54
2022/09/20 08:29:12;;;;;;;16.48;3.22;;;;;;;14.29;60.43;101982.81;5107962;28;20043;-57
2022/09/20 08:31:41;;;;;;;30.30;4.32;;;;;;;14.46;59.56;101985.78;5110362;27;20055;-54
2022/09/20 08:34:11;;;;;;;19.58;3.15;;;;;;;13.88;61.36;101978.31;5109117;27;20062;-54
2022/09/20 08:36:40;;;;;;;12.85;3.03;;;;;;;14.46;60.53;101985.78;5108380;27;20044;-51
2022/09/20 08:39:08;;;;;;;23.88;6.97;;;;;;;14.74;59.26;101985.75;5111779;28;20047;-56
2022/09/20 08:42:11;;;;;;;20.02;8.25;;;;;;;15.02;58.16;101984.56;5107453;27;20062;-54
2022/09/20 08:44:52;;;;;;;13.13;3.67;;;;;;;15.02;57.18;101988.16;5108453;28;20055;-55
2022/09/20 08:47:30;;;;;;;13.35;3.10;;;;;;;14.78;58.39;101982.06;5108868;28;20432;-53
2022/09/20 08:49:59;;;;;;;31.27;4.35;;;;;;;14.79;58.33;101996.72;5095867;27;20055;-52
2022/09/20 08:52:34;;;;;;;39.60;5.97;;;;;;;14.50;59.71;101999.84;5090939;28;20056;-52
2022/09/20 08:55:22;;;;;;;146.82;16.20;;;;;;;14.95;58.47;101998.88;5072718;28;20302;-54
2022/09/20 08:57:51;;;;;;;99.35;12.15;;;;;;;15.05;57.76;102000.59;5098910;28;20047;-57
2022/09/20 09:00:21;;;;;;;13.45;2.67;;;;;;;14.38;59.20;102002.31;5090774;27;20047;-57
2022/09/20 09:02:57;;;;;;;11.77;3.33;;;;;;;14.37;59.87;101995.94;5072107;28;20052;-56
2022/09/20 09:05:37;;;;;;;15.45;3.17;;;;;;;14.49;58.95;101992.66;5104699;28;20066;-56
2022/09/20 09:08:15;;;;;;;20.02;3.50;;;;;;;15.45;58.13;101986.59;5110070;28;20047;-57
2022/09/20 09:10:51;;;;;;;16.77;4.13;;;;;;;15.58;56.18;101990.47;5080036;27;20051;-56
2022/09/20 09:13:31;;;;;;;16.85;3.53;;;;;;;14.97;58.17;101987.47;5092208;28;20472;-57
2022/09/20 09:16:01;;;;;;;17.30;3.97;;;;;;;15.30;57.64;101998.06;5110138;27;21474;-54
2022/09/20 09:18:34;;;;;;;13.32;3.58;;;;;;;15.59;56.93;101998.47;5079982;28;20044;-58
2022/09/20 09:21:03;;;;;;;17.85;3.05;;;;;;;15.21;57.79;101997.16;5109832;28;20040;-57
2022/09/20 09:23:41;;;;;;;20.15;3.20;;;;;;;15.58;57.33;101994.06;5098910;28;20055;-54
2022/09/20 09:26:15;;;;;;;13.23;2.60;;;;;;;15.41;57.31;101993.91;5097596;28;20051;-58
2022/09/20 09:28:43;;;;;;;11.05;2.80;;;;;;;16.05;56.21;101994.50;5113685;28;20070;-57
2022/09/20 09:31:28;;;;;;;14.25;3.55;;;;;;;15.81;55.86;101988.50;5114299;28;20051;-55
2022/09/20 09:33:56;;;;;;;17.40;3.40;;;;;;;16.09;55.78;101987.97;5113108;27;20043;-55
2022/09/20 09:36:24;;;;;;;15.60;3.33;;;;;;;15.73;55.16;101985.34;5108987;28;20066;-59
2022/09/20 09:39:21;;;;;;;17.88;3.20;;;;;;;15.68;56.82;101996.59;5106819;28;20521;-61
2022/09/20 09:41:49;;;;;;;12.57;3.35;;;;;;;15.92;56.35;101985.09;5103329;28;20051;-61
2022/09/20 09:44:26;;;;;;;17.58;3.97;;;;;;;16.06;54.71;101987.78;5106504;28;20060;-57
2022/09/20 09:46:55;;;;;;;11.70;3.00;;;;;;;15.97;56.75;101990.53;5109406;28;20116;-61
2022/09/20 09:49:34;;;;;;;17.25;3.20;;;;;;;15.84;55.68;101985.91;5106897;28;20043;-60
2022/09/20 09:52:24;;;;;;;18.90;3.57;;;;;;;16.24;55.76;101989.53;5109889;28;20135;-61
2022/09/20 09:54:58;;;;;;;21.42;4.00;;;;;;;16.48;54.55;101989.97;5111904;28;20059;-62
2022/09/20 09:57:54;;;;;;;15.95;3.65;;;;;;;16.10;55.79;101988.81;5075811;28;20055;-62
2022/09/20 10:00:23;;;;;;;19.25;3.92;;;;;;;15.70;55.59;101980.44;5089033;28;20051;-61
2022/09/20 10:03:03;;;;;;;17.55;3.55;;;;;;;16.33;55.09;101990.38;5094442;28;20039;-62
2022/09/20 10:05:59;;;;;;;11.30;2.80;;;;;;;15.89;55.43;101984.94;5108788;28;20059;-61
2022/09/20 10:08:45;;;;;;;12.80;3.45;;;;;;;16.14;53.37;101987.88;5095088;28;20043;-62
2022/09/20 10:11:29;;;;;;;11.05;3.38;;;;;;;16.35;53.93;101983.34;5111816;28;20054;-62
2022/09/20 10:13:56;;;;;;;13.18;2.58;;;;;;;16.28;53.24;101979.41;5097715;28;20051;-62
2022/09/20 10:16:32;;;;;;;8.02;2.75;;;;;;;15.52;54.26;101981.44;5111760;28;20039;-61
2022/09/20 10:19:26;;;;;;;14.68;3.20;;;;;;;15.10;55.43;101983.84;5111269;28;20639;-62
2022/09/20 10:22:05;;;;;;;10.45;3.38;;;;;;;15.63;54.08;101979.22;5083093;28;20070;-63
2022/09/20 10:24:59;;;;;;;15.48;3.70;;;;;;;15.13;54.74;101981.22;5095678;28;20218;-63
2022/09/20 10:27:50;;;;;;;13.63;3.83;;;;;;;15.42;55.44;101981.69;5106444;28;20052;-61
2022/09/20 10:30:21;;;;;;;14.63;3.17;;;;;;;15.83;53.85;101980.66;5079939;28;20059;-61
2022/09/20 10:33:00;;;;;;;12.20;3.35;;;;;;;16.21;52.76;101984.63;5081050;28;20051;-60
2022/09/20 10:35:34;;;;;;;19.65;4.55;;;;;;;15.87;52.94;101974.13;5096359;28;20048;-61
2022/09/20 10:38:22;;;;;;;12.77;4.35;;;;;;;15.78;53.85;101976.03;5117766;27;20052;-61
2022/09/20 10:44:18;;;;;;;13.77;3.25;;;;;;;15.90;54.19;101972.69;5092824;28;20047;-61
2022/09/20 10:47:10;;;;;;;14.07;3.05;;;;;;;15.77;53.64;101978.00;5095211;27;20044;-62
2022/09/20 10:50:02;;;;;;;11.35;3.25;;;;;;;15.93;54.62;101972.03;5101535;28;20550;-62
2022/09/20 10:52:33;;;;;;;16.42;3.42;;;;;;;15.64;52.28;101973.34;5105072;27;20047;-61
2022/09/20 10:55:30;;;;;;;17.15;4.43;;;;;;;15.68;52.90;101963.25;5101924;28;20406;-61
2022/09/20 10:58:15;;;;;;;10.35;3.10;;;;;;;16.14;52.19;101964.78;5098078;28;20059;-61
2022/09/20 11:01:08;;;;;;;11.98;3.85;;;;;;;16.73;51.42;101966.97;5121444;27;20044;-62
2022/09/20 11:04:07;;;;;;;16.08;3.00;;;;;;;16.89;51.57;101957.81;5101679;28;20382;-62
2022/09/20 11:06:58;;;;;;;9.10;2.60;;;;;;;16.73;50.27;101958.63;5076034;27;20048;-62
2022/09/20 11:09:30;;;;;;;15.73;3.53;;;;;;;17.02;51.01;101956.03;5109433;28;20040;-61
2022/09/20 11:12:22;;;;;;;10.70;2.80;;;;;;;16.55;50.53;101965.28;5083611;28;20047;-61
2022/09/20 11:14:56;;;;;;;11.77;2.55;;;;;;;16.60;51.01;101960.41;5097296;28;20417;-61
2022/09/20 11:17:32;;;;;;;13.00;2.92;;;;;;;16.36;50.64;101959.97;5096107;28;20043;-62
2022/09/20 11:20:03;;;;;;;11.93;3.78;;;;;;;16.45;51.34;101960.84;5100475;28;20528;-62
2022/09/20 11:22:40;;;;;;;13.85;3.30;;;;;;;16.68;50.43;101956.00;5106075;28;20071;-62
2022/09/20 11:25:17;;;;;;;9.45;3.22;;;;;;;16.76;48.71;101960.75;5088649;27;20054;-62
2022/09/20 11:27:56;;;;;;;14.60;3.53;;;;;;;16.59;50.66;101952.38;5094921;28;20066;-61
2022/09/20 11:30:24;;;;;;;14.30;3.60;;;;;;;16.84;49.37;101952.41;5114722;28;20051;-61
2022/09/20 11:33:16;;;;;;;17.23;2.53;;;;;;;16.86;49.71;101952.09;5110455;28;20490;-62
2022/09/20 11:35:57;;;;;;;11.43;3.90;;;;;;;16.42;49.32;101953.09;5115594;27;20048;-61
2022/09/20 11:38:53;;;;;;;13.23;3.80;;;;;;;16.23;50.60;101955.34;5114028;28;20048;-62
2022/09/20 11:41:28;;;;;;;9.48;2.53;;;;;;;16.61;49.14;101948.16;5122836;27;20506;-63
2022/09/20 11:44:03;;;;;;;6.43;2.47;;;;;;;16.76;50.55;101946.84;5109252;27;20047;-63
2022/09/20 11:46:35;;;;;;;9.40;2.63;;;;;;;16.94;48.24;101945.72;5093006;28;20044;-61
2022/09/20 11:49:19;;;;;;;11.98;2.72;;;;;;;17.21;47.80;101948.19;5105643;27;20052;-62
2022/09/20 11:51:58;;;;;;;9.57;2.85;;;;;;;17.48;48.59;101947.88;5107204;28;20059;-62
2022/09/20 11:54:36;;;;;;;9.85;2.42;;;;;;;17.34;48.09;101946.38;5111191;27;20051;-62
2022/09/20 11:57:06;;;;;;;8.98;2.00;;;;;;;17.27;47.73;101946.88;5110104;28;20052;-62
2022/09/20 11:59:39;;;;;;;10.00;1.90;;;;;;;17.53;48.14;101950.50;5100198;27;20043;-61
2022/09/20 12:02:19;;;;;;;9.43;1.90;;;;;;;17.18;47.10;101953.59;5100116;28;20505;-62
2022/09/20 12:04:48;;;;;;;15.82;2.70;;;;;;;16.92;47.64;101952.75;5115314;27;20058;-62
2022/09/20 12:07:25;;;;;;;9.47;2.37;;;;;;;16.84;48.18;101951.63;5100990;28;20544;-61
2022/09/20 12:09:59;;;;;;;10.10;2.30;;;;;;;16.88;50.48;101946.22;5101514;27;20293;-62
2022/09/20 12:12:45;;;;;;;7.43;2.17;;;;;;;16.78;47.85;101939.81;5090199;28;20047;-62
2022/09/20 12:15:25;;;;;;;13.68;2.40;;;;;;;16.93;48.34;101932.94;5107958;27;20052;-63
2022/09/20 12:17:52;;;;;;;9.73;2.38;;;;;;;16.85;48.86;101950.47;5088177;28;20051;-62
2022/09/20 12:20:48;;;;;;;9.07;3.05;;;;;;;16.47;50.17;101952.19;5114141;27;20529;-62
2022/09/20 12:23:41;;;;;;;11.73;3.88;;;;;;;16.72;50.25;101938.31;5092202;28;20059;-62
2022/09/20 12:26:09;;;;;;;11.57;3.40;;;;;;;16.74;50.17;101938.81;5108574;28;20048;-63
2022/09/20 12:28:48;;;;;;;12.70;2.95;;;;;;;16.45;50.04;101941.38;5109415;28;20048;-61